nws-alerts: Checking more than four warning/county codes can delay the loading of your pages. You should use a cron job to get the data.
EllijayWeather Station Historical Data
Daily Summary for October 11, 2018 Units:  Metric    English   Both
Daily Weekly Monthly Yearly Custom
  High: Low: Average:
Temperature: 22.2 °C 12.7 °C 19.5 °C
Dew Point: 17.6 °C 7.6 °C 12.3 °C
Humidity: 78% 53% 64%
Wind Speed: 11.1km/h 0km/h 1.1km/h
Wind Gust: 19.3km/h - -
Wind- - WSW
Pressure: 1013.8 hPa 1002.3 hPa -
Precipitation: 33.27 mm    
Historical Graphs
 
 
Tabular Data for October 11, 2018
Time Temperature Dew Point Pressure Wind Wind Speed Wind Gust Humidity Rainfall Rate (Hourly) solar
00:04 21.2 °C 12.1 °C 1005.6 hPa Calm   9.7 km/h 56% 7.37 mm meteobridge W/m2
00:09 21.2 °C 12.1 °C 1005.3 hPa NNW 3.2 km/h 3.2 km/h 56% 7.62 mm meteobridge W/m2
00:14 21.2 °C 12.1 °C 1005.3 hPa Calm   1.6 km/h 56% 7.37 mm meteobridge W/m2
00:19 21.2 °C 12.1 °C 1005.6 hPa Calm     56% 7.37 mm meteobridge W/m2
00:24 21.2 °C 12.1 °C 1005.3 hPa Calm   4.8 km/h 56% 7.37 mm meteobridge W/m2
00:29 21.2 °C 12.1 °C 1005 hPa Calm   9.7 km/h 56% 7.62 mm meteobridge W/m2
00:34 21.2 °C 11.8 °C 1005 hPa Calm   4.8 km/h 55% 7.62 mm meteobridge W/m2
00:39 21.2 °C 11.8 °C 1005 hPa NNW 1.4 km/h 11.3 km/h 55% 7.62 mm meteobridge W/m2
00:44 21.2 °C 11.8 °C 1005 hPa Calm   6.4 km/h 55% 7.62 mm meteobridge W/m2
00:49 21.1 °C 11.7 °C 1004.6 hPa Calm   11.3 km/h 55% 7.37 mm meteobridge W/m2
00:54 21.2 °C 11.8 °C 1004.6 hPa NW 1.4 km/h 4.8 km/h 55% 6.86 mm meteobridge W/m2
00:59 21.1 °C 11.7 °C 1004.3 hPa NW 7.9 km/h 9.7 km/h 55% 6.86 mm meteobridge W/m2
01:04 21.2 °C 11.8 °C 1004.6 hPa Calm   6.4 km/h 55% 7.11 mm meteobridge W/m2
01:09 21.2 °C 11.8 °C 1004.3 hPa Calm   9.7 km/h 55% 6.86 mm meteobridge W/m2
01:14 21.1 °C 11.7 °C 1003.9 hPa NW 1.4 km/h 1.6 km/h 55% 7.37 mm meteobridge W/m2
01:19 21.1 °C 11.7 °C 1003.9 hPa NE 3.2 km/h 9.7 km/h 55% 7.37 mm meteobridge W/m2
01:24 21.1 °C 11.7 °C 1003.9 hPa ENE 1.4 km/h 6.4 km/h 55% 7.11 mm meteobridge W/m2
01:29 21.1 °C 11.7 °C 1003.9 hPa Calm     55% 6.6 mm meteobridge W/m2
01:34 21.1 °C 11.7 °C 1003.9 hPa Calm   9.7 km/h 55% 6.35 mm meteobridge W/m2
01:39 21.1 °C 11.7 °C 1003.9 hPa Calm   8 km/h 55% 6.1 mm meteobridge W/m2
01:44 21.1 °C 11.7 °C 1003.9 hPa NW 9.7 km/h 12.9 km/h 55% 5.84 mm meteobridge W/m2
01:49 21.1 °C 11.7 °C 1003.9 hPa North 3.2 km/h 4.8 km/h 55% 5.08 mm meteobridge W/m2
01:54 21.1 °C 11.7 °C 1003.9 hPa North 1.4 km/h 9.7 km/h 55% 4.32 mm meteobridge W/m2
01:59 21 °C 11.6 °C 1003.9 hPa Calm   6.4 km/h 55% 4.06 mm meteobridge W/m2
02:04 20.9 °C 11.5 °C 1003.9 hPa NNW 1.4 km/h 6.4 km/h 55% 4.57 mm meteobridge W/m2
02:09 20.8 °C 11.4 °C 1003.6 hPa NW 1.4 km/h 12.9 km/h 55% 5.33 mm meteobridge W/m2
02:14 20.8 °C 11.4 °C 1003.6 hPa NNE 11.1 km/h 11.3 km/h 55% 5.84 mm meteobridge W/m2
02:19 20.8 °C 11.4 °C 1003.6 hPa West 3.2 km/h 11.3 km/h 55% 7.62 mm meteobridge W/m2
02:24 20.7 °C 11.3 °C 1002.9 hPa WSW 7.9 km/h 14.5 km/h 55% 9.14 mm meteobridge W/m2
02:29 20.7 °C 11.3 °C 1002.9 hPa Calm   6.4 km/h 55% 10.67 mm meteobridge W/m2
02:34 20.6 °C 11.2 °C 1003.3 hPa WNW 9.7 km/h 9.7 km/h 55% 10.67 mm meteobridge W/m2
02:39 20.6 °C 11.2 °C 1002.9 hPa Calm   9.7 km/h 55% 10.67 mm meteobridge W/m2
02:44 20.6 °C 11.2 °C 1002.9 hPa Calm   8 km/h 55% 10.41 mm meteobridge W/m2
02:49 20.6 °C 11.2 °C 1003.3 hPa Calm   4.8 km/h 55% 10.16 mm meteobridge W/m2
02:54 20.6 °C 11.2 °C 1002.9 hPa WNW 3.2 km/h 6.4 km/h 55% 10.41 mm meteobridge W/m2
02:59 20.5 °C 11.1 °C 1002.9 hPa Calm   6.4 km/h 55% 10.16 mm meteobridge W/m2
03:04 20.6 °C 11.2 °C 1002.9 hPa Calm   6.4 km/h 55% 9.14 mm meteobridge W/m2
03:09 20.6 °C 11.2 °C 1002.9 hPa NW 9.7 km/h 9.7 km/h 55% 8.13 mm meteobridge W/m2
03:14 20.5 °C 11.1 °C 1002.9 hPa Calm   3.2 km/h 55% 6.35 mm meteobridge W/m2
03:19 20.4 °C 11.1 °C 1002.9 hPa Calm   6.4 km/h 55% 4.83 mm meteobridge W/m2
03:24 20.4 °C 11.1 °C 1002.9 hPa NW 7.9 km/h 8 km/h 55% 3.05 mm meteobridge W/m2
03:29 20.4 °C 11.1 °C 1003.3 hPa East 1.4 km/h 4.8 km/h 55% 1.27 mm meteobridge W/m2
03:34 20.4 °C 11.1 °C 1003.3 hPa Calm   14.5 km/h 55% 1.02 mm meteobridge W/m2
03:39 20.4 °C 11.1 °C 1002.9 hPa NNW 3.2 km/h 6.4 km/h 55% 1.52 mm meteobridge W/m2
03:44 20.4 °C 11.1 °C 1002.6 hPa Calm     55% 1.78 mm meteobridge W/m2
03:49 20.4 °C 11.3 °C 1002.6 hPa WNW 4.7 km/h 9.7 km/h 56% 2.03 mm meteobridge W/m2
03:54 20.4 °C 11.3 °C 1002.6 hPa ENE 1.4 km/h 17.7 km/h 56% 2.03 mm meteobridge W/m2
03:59 20.4 °C 11.3 °C 1002.6 hPa West 4.7 km/h 4.8 km/h 56% 1.78 mm meteobridge W/m2
04:04 20.4 °C 11.1 °C 1002.6 hPa Calm   3.2 km/h 55% 1.78 mm meteobridge W/m2
04:09 20.4 °C 11.1 °C 1002.6 hPa NE 1.4 km/h 8 km/h 55% 1.78 mm meteobridge W/m2
04:14 20.5 °C 11.1 °C 1002.6 hPa Calm   6.4 km/h 55% 1.78 mm meteobridge W/m2
04:19 20.4 °C 11.1 °C 1002.6 hPa Calm     55% 1.78 mm meteobridge W/m2
04:24 20.4 °C 11.1 °C 1002.6 hPa Calm   6.4 km/h 55% 2.03 mm meteobridge W/m2
04:29 20.4 °C 11.1 °C 1002.6 hPa Calm   8 km/h 55% 2.29 mm meteobridge W/m2
04:34 20.4 °C 11.1 °C 1002.6 hPa Calm   6.4 km/h 55% 2.79 mm meteobridge W/m2
04:39 20.5 °C 11.1 °C 1002.6 hPa SSE 3.2 km/h 8 km/h 55% 2.29 mm meteobridge W/m2
04:44 20.6 °C 11.2 °C 1002.3 hPa Calm   4.8 km/h 55% 2.03 mm meteobridge W/m2
04:49 20.6 °C 11.2 °C 1002.3 hPa WNW 4.7 km/h 8 km/h 55% 2.29 mm meteobridge W/m2
04:54 20.6 °C 11.2 °C 1002.3 hPa ENE 9.7 km/h 12.9 km/h 55% 3.3 mm meteobridge W/m2
04:59 20.7 °C 11.3 °C 1002.3 hPa NW 3.2 km/h 14.5 km/h 55% 4.57 mm meteobridge W/m2
05:04 20.8 °C 11.4 °C 1002.6 hPa Calm   9.7 km/h 55% 5.84 mm meteobridge W/m2
05:09 20.8 °C 11.4 °C 1002.6 hPa WSW 3.2 km/h 11.3 km/h 55% 7.11 mm meteobridge W/m2
05:14 20.8 °C 11.4 °C 1002.6 hPa Calm   1.6 km/h 55% 7.87 mm meteobridge W/m2
05:19 20.8 °C 11.4 °C 1002.6 hPa Calm     55% 8.13 mm meteobridge W/m2
05:24 20.8 °C 11.4 °C 1002.6 hPa Calm   6.4 km/h 55% 7.87 mm meteobridge W/m2
05:29 20.7 °C 11.3 °C 1002.6 hPa Calm   4.8 km/h 55% 7.87 mm meteobridge W/m2
05:34 20.7 °C 11.3 °C 1002.9 hPa East 3.2 km/h 8 km/h 55% 7.37 mm meteobridge W/m2
05:39 20.6 °C 11.2 °C 1002.9 hPa West 7.9 km/h 9.7 km/h 55% 7.37 mm meteobridge W/m2
05:44 20.5 °C 11.1 °C 1002.9 hPa Calm   11.3 km/h 55% 7.37 mm meteobridge W/m2
05:49 20.4 °C 11.1 °C 1002.9 hPa WNW 6.4 km/h 11.3 km/h 55% 6.86 mm meteobridge W/m2
05:54 20.4 °C 11.1 °C 1002.9 hPa Calm   1.6 km/h 55% 5.59 mm meteobridge W/m2
05:59 20.3 °C 11 °C 1002.9 hPa Calm   1.6 km/h 55% 4.57 mm meteobridge W/m2
06:04 20.3 °C 11 °C 1002.9 hPa NE 3.2 km/h 8 km/h 55% 3.3 mm meteobridge W/m2
06:09 20.3 °C 11 °C 1002.9 hPa Calm   4.8 km/h 55% 2.03 mm meteobridge W/m2
06:14 20.3 °C 11 °C 1002.9 hPa Calm     55% 1.27 mm meteobridge W/m2
06:19 20.3 °C 11 °C 1003.3 hPa Calm     55% 1.02 mm meteobridge W/m2
06:24 20.3 °C 11 °C 1003.3 hPa Calm     55% 1.02 mm meteobridge W/m2
06:29 20.3 °C 11 °C 1003.3 hPa Calm     55% 0.76 mm meteobridge W/m2
06:34 20.3 °C 11 °C 1003.3 hPa Calm     55% 0.76 mm meteobridge W/m2
06:39 20.3 °C 11 °C 1003.3 hPa Calm   3.2 km/h 55% 0.76 mm meteobridge W/m2
06:44 20.3 °C 11 °C 1003.3 hPa Calm     55% 0.51 mm meteobridge W/m2
06:49 20.3 °C 11 °C 1003.3 hPa Calm   4.8 km/h 55% 0.76 mm meteobridge W/m2
06:54 20.3 °C 11 °C 1003.3 hPa Calm   1.6 km/h 55% 0.76 mm meteobridge W/m2
06:59 20.3 °C 11 °C 1003.3 hPa Calm   6.4 km/h 55% 0.76 mm meteobridge W/m2
07:04 20.3 °C 11 °C 1003.3 hPa Calm     55% 0.51 mm meteobridge W/m2
07:09 20.4 °C 11.1 °C 1003.3 hPa Calm   1.6 km/h 55% 0.51 mm meteobridge W/m2
07:14 20.4 °C 10.8 °C 1003.3 hPa North 3.2 km/h 8 km/h 54% 0.51 mm meteobridge W/m2
07:19 20.5 °C 10.9 °C 1003.3 hPa Calm   6.4 km/h 54% 0.51 mm meteobridge W/m2
07:24 20.6 °C 11 °C 1003.6 hPa West 1.4 km/h 4.8 km/h 54% 0.51 mm meteobridge W/m2
07:29 20.6 °C 11 °C 1003.6 hPa Calm   8 km/h 54% 0.51 mm meteobridge W/m2
07:34 20.6 °C 11 °C 1003.9 hPa Calm   1.6 km/h 54% 0.51 mm meteobridge W/m2
07:39 20.6 °C 11 °C 1003.9 hPa Calm     54% 0.51 mm meteobridge W/m2
07:44 20.6 °C 11 °C 1003.9 hPa Calm     54% 0.51 mm meteobridge W/m2
07:49 20.6 °C 11 °C 1003.9 hPa Calm   4.8 km/h 54% 0.25 mm meteobridge W/m2
07:54 20.6 °C 11 °C 1003.9 hPa Calm   1.6 km/h 54% 0.25 mm meteobridge W/m2
07:59 20.6 °C 11 °C 1003.9 hPa Calm     54% 0 mm meteobridge W/m2
08:04 20.6 °C 11 °C 1003.9 hPa Calm     54% 0.25 mm meteobridge W/m2
08:09 20.6 °C 11 °C 1003.9 hPa Calm     54% 0.25 mm meteobridge W/m2
08:14 20.6 °C 11 °C 1003.9 hPa Calm   4.8 km/h 54% 0.25 mm meteobridge W/m2
08:19 20.6 °C 11 °C 1003.9 hPa Calm   4.8 km/h 54% 0.25 mm meteobridge W/m2
08:24 20.7 °C 11.1 °C 1004.3 hPa Calm   4.8 km/h 54% 0.51 mm meteobridge W/m2
08:29 20.7 °C 11.1 °C 1004.3 hPa Calm     54% 0.51 mm meteobridge W/m2
08:34 20.7 °C 11.1 °C 1004.6 hPa Calm   8 km/h 54% 0.51 mm meteobridge W/m2
08:39 20.7 °C 11.1 °C 1004.6 hPa Calm   3.2 km/h 54% 0.51 mm meteobridge W/m2
08:44 20.7 °C 11.1 °C 1004.6 hPa Calm   1.6 km/h 54% 0.51 mm meteobridge W/m2
08:49 20.7 °C 11.1 °C 1004.6 hPa Calm   4.8 km/h 54% 0.51 mm meteobridge W/m2
08:54 20.7 °C 11.1 °C 1005 hPa Calm     54% 0.51 mm meteobridge W/m2
08:59 20.7 °C 11.1 °C 1005 hPa Calm     54% 0.25 mm meteobridge W/m2
09:04 20.7 °C 11.1 °C 1005 hPa NNE 3.2 km/h 3.2 km/h 54% 0.25 mm meteobridge W/m2
09:09 20.7 °C 11.1 °C 1005 hPa Calm   1.6 km/h 54% 0.25 mm meteobridge W/m2
09:14 20.7 °C 11.1 °C 1005.3 hPa SW 6.4 km/h 19.3 km/h 54% 0.25 mm meteobridge W/m2
09:19 20.6 °C 11 °C 1005.3 hPa Calm   17.7 km/h 54% 0.25 mm meteobridge W/m2
09:24 20.6 °C 11 °C 1005.6 hPa WSW 3.2 km/h 8 km/h 54% 0 mm meteobridge W/m2
09:29 20.6 °C 11 °C 1005.6 hPa WNW 3.2 km/h 3.2 km/h 54% 0 mm meteobridge W/m2
09:34 20.7 °C 11.1 °C 1005.6 hPa Calm   4.8 km/h 54% 0 mm meteobridge W/m2
09:39 20.8 °C 11.2 °C 1005.6 hPa NW 4.7 km/h 8 km/h 54% 0 mm meteobridge W/m2
09:44 20.9 °C 11.2 °C 1006 hPa WNW 4.7 km/h 6.4 km/h 54% 0 mm meteobridge W/m2
09:49 20.8 °C 11.2 °C 1006 hPa Calm   4.8 km/h 54% 0 mm meteobridge W/m2
09:54 20.8 °C 11.2 °C 1006 hPa Calm   1.6 km/h 54% 0 mm meteobridge W/m2
09:59 20.8 °C 11.2 °C 1006.3 hPa Calm   4.8 km/h 54% 0 mm meteobridge W/m2
10:04 20.7 °C 11.1 °C 1006.3 hPa Calm   1.6 km/h 54% 0 mm meteobridge W/m2
10:09 20.8 °C 11.2 °C 1006.3 hPa Calm   1.6 km/h 54% 0 mm meteobridge W/m2
10:14 20.7 °C 11.1 °C 1006.3 hPa Calm   14.5 km/h 54% 0 mm meteobridge W/m2
10:19 20.7 °C 11.1 °C 1006.3 hPa WNW 6.4 km/h 12.9 km/h 54% 0 mm meteobridge W/m2
10:24 20.7 °C 11.1 °C 1006.3 hPa Calm   1.6 km/h 54% 0 mm meteobridge W/m2
10:29 20.7 °C 11.1 °C 1006.3 hPa Calm   3.2 km/h 54% 0 mm meteobridge W/m2
10:34 20.7 °C 11.1 °C 1006.3 hPa Calm   1.6 km/h 54% 0 mm meteobridge W/m2
10:39 20.8 °C 11.2 °C 1006.7 hPa WNW 3.2 km/h 6.4 km/h 54% 0 mm meteobridge W/m2
10:44 20.8 °C 11.2 °C 1006.7 hPa Calm   14.5 km/h 54% 0 mm meteobridge W/m2
10:49 20.9 °C 11.2 °C 1006.7 hPa Calm   12.9 km/h 54% 0 mm meteobridge W/m2
10:54 20.9 °C 11 °C 1006.7 hPa Calm   3.2 km/h 53% 0 mm meteobridge W/m2
10:59 21.1 °C 11.1 °C 1006.7 hPa NW 1.4 km/h 6.4 km/h 53% 0 mm meteobridge W/m2
11:04 21.1 °C 11.1 °C 1007 hPa NNW 4.7 km/h 6.4 km/h 53% 0 mm meteobridge W/m2
11:09 21.1 °C 11.4 °C 1007 hPa NNW 4.7 km/h 8 km/h 54% 0 mm meteobridge W/m2
11:14 20.9 °C 11.2 °C 1007.3 hPa Calm   8 km/h 54% 0 mm meteobridge W/m2
11:19 20.9 °C 11.5 °C 1007 hPa NW 4.7 km/h 12.9 km/h 55% 0 mm meteobridge W/m2
11:24 21 °C 11.6 °C 1007.3 hPa Calm   6.4 km/h 55% 0 mm meteobridge W/m2
11:29 21.2 °C 11.8 °C 1007.3 hPa Calm   12.9 km/h 55% 0 mm meteobridge W/m2
11:34 21.3 °C 12.4 °C 1007.3 hPa WNW 1.4 km/h 12.9 km/h 57% 0 mm meteobridge W/m2
11:39 21.5 °C 12.6 °C 1007.3 hPa Calm   8 km/h 57% 0 mm meteobridge W/m2
11:44 21.7 °C 13.1 °C 1007.3 hPa WNW 7.9 km/h 8 km/h 58% 0 mm meteobridge W/m2
11:49 21.6 °C 13.5 °C 1007.3 hPa NE 1.4 km/h 8 km/h 60% 0 mm meteobridge W/m2
11:54 21.7 °C 13.8 °C 1007.7 hPa NNW 3.2 km/h 8 km/h 61% 0 mm meteobridge W/m2
11:59 21.7 °C 14.3 °C 1007.3 hPa Calm   6.4 km/h 63% 0 mm meteobridge W/m2
12:04 21.6 °C 14.5 °C 1007.3 hPa Calm   12.9 km/h 64% 0 mm meteobridge W/m2
12:09 21.6 °C 15 °C 1007.7 hPa South 9.7 km/h 9.7 km/h 66% 0 mm meteobridge W/m2
12:14 21.6 °C 15.2 °C 1008 hPa WNW 1.4 km/h 8 km/h 67% 0 mm meteobridge W/m2
12:19 21.7 °C 15.1 °C 1007.7 hPa Calm   8 km/h 66% 0 mm meteobridge W/m2
12:24 21.7 °C 15.3 °C 1008 hPa NW 7.9 km/h 12.9 km/h 67% 0 mm meteobridge W/m2
12:29 21.8 °C 15.6 °C 1008 hPa WNW 6.4 km/h 12.9 km/h 68% 0 mm meteobridge W/m2
12:34 21.8 °C 16.1 °C 1008 hPa Calm   3.2 km/h 70% 0 mm meteobridge W/m2
12:39 21.7 °C 16.4 °C 1008.4 hPa Calm   9.7 km/h 72% 0 mm meteobridge W/m2
12:44 21.6 °C 16.3 °C 1008.4 hPa Calm   16.1 km/h 72% 0 mm meteobridge W/m2
12:49 21.6 °C 16.1 °C 1008.4 hPa Calm   6.4 km/h 71% 0 mm meteobridge W/m2
12:54 21.5 °C 16.2 °C 1008.4 hPa Calm   16.1 km/h 72% 0 mm meteobridge W/m2
12:59 21.6 °C 16.1 °C 1008.7 hPa Calm   11.3 km/h 71% 0 mm meteobridge W/m2
13:04 21.4 °C 16.6 °C 1008.7 hPa NW 3.2 km/h 6.4 km/h 74% 0 mm meteobridge W/m2
13:09 21.3 °C 16.5 °C 1008.7 hPa Calm   11.3 km/h 74% 0 mm meteobridge W/m2
13:14 21.2 °C 15.9 °C 1008.7 hPa Calm   1.6 km/h 72% 0 mm meteobridge W/m2
13:19 21.2 °C 16.4 °C 1008.7 hPa Calm   6.4 km/h 74% 0 mm meteobridge W/m2
13:24 21.2 °C 16.6 °C 1008.7 hPa NW 1.4 km/h 14.5 km/h 75% 0 mm meteobridge W/m2
13:29 21.3 °C 16.5 °C 1008.7 hPa Calm   11.3 km/h 74% 0 mm meteobridge W/m2
13:34 21.2 °C 16.4 °C 1008.7 hPa WNW 1.4 km/h 9.7 km/h 74% 0 mm meteobridge W/m2
13:39 21.2 °C 16.6 °C 1008.7 hPa Calm   11.3 km/h 75% 0 mm meteobridge W/m2
13:44 21.2 °C 16.8 °C 1009 hPa Calm   6.4 km/h 76% 0 mm meteobridge W/m2
13:49 21.3 °C 16.5 °C 1008.7 hPa Calm     74% 0 mm meteobridge W/m2
13:54 21.4 °C 16.8 °C 1008.7 hPa NW 4.7 km/h 11.3 km/h 75% 0 mm meteobridge W/m2
13:59 21.4 °C 17.2 °C 1008.7 hPa Calm   6.4 km/h 77% 0 mm meteobridge W/m2
14:04 21.4 °C 17.2 °C 1008.7 hPa WSW 1.4 km/h 14.5 km/h 77% 0 mm meteobridge W/m2
14:09 21.6 °C 17.4 °C 1008.7 hPa Calm   17.7 km/h 77% 0 mm meteobridge W/m2
14:14 21.7 °C 17.5 °C 1008.7 hPa NW 1.4 km/h 11.3 km/h 77% 0 mm meteobridge W/m2
14:19 21.8 °C 17.6 °C 1009 hPa North 1.4 km/h 1.6 km/h 77% 0 mm meteobridge W/m2
14:24 21.8 °C 17.4 °C 1009 hPa Calm   11.3 km/h 76% 0 mm meteobridge W/m2
14:29 21.8 °C 17.4 °C 1009 hPa Calm   12.9 km/h 76% 0 mm meteobridge W/m2
14:34 21.8 °C 17.2 °C 1009 hPa NNW 1.4 km/h 14.5 km/h 75% 0 mm meteobridge W/m2
14:39 21.8 °C 17.4 °C 1008.7 hPa Calm   6.4 km/h 76% 0 mm meteobridge W/m2
14:44 22 °C 17.6 °C 1009 hPa Calm   11.3 km/h 76% 0 mm meteobridge W/m2
14:49 22.2 °C 17.6 °C 1009 hPa Calm   9.7 km/h 75% 0 mm meteobridge W/m2
14:54 22.2 °C 17.3 °C 1009 hPa Calm   11.3 km/h 74% 0 mm meteobridge W/m2
14:59 22.2 °C 17.3 °C 1008.7 hPa Calm   3.2 km/h 74% 0 mm meteobridge W/m2
15:04 22.1 °C 16.8 °C 1009 hPa WNW 11.1 km/h 12.9 km/h 72% 0 mm meteobridge W/m2
15:09 22.1 °C 16.6 °C 1009 hPa North 7.9 km/h 8 km/h 71% 0 mm meteobridge W/m2
15:14 22.1 °C 16.4 °C 1009 hPa Calm   6.4 km/h 70% 0 mm meteobridge W/m2
15:19 22 °C 16.5 °C 1009 hPa ESE 1.4 km/h 1.6 km/h 71% 0 mm meteobridge W/m2
15:24 22 °C 16.3 °C 1009 hPa ENE 4.7 km/h 9.7 km/h 70% 0 mm meteobridge W/m2
15:29 22 °C 16 °C 1009 hPa NNW 3.2 km/h 8 km/h 69% 0 mm meteobridge W/m2
15:34 22 °C 15.6 °C 1009 hPa Calm   6.4 km/h 67% 0 mm meteobridge W/m2
15:39 21.9 °C 15.3 °C 1009 hPa WNW 1.4 km/h 11.3 km/h 66% 0 mm meteobridge W/m2
15:44 22 °C 16 °C 1009 hPa NW 4.7 km/h 6.4 km/h 69% 0 mm meteobridge W/m2
15:49 21.9 °C 15.3 °C 1009 hPa Calm   9.7 km/h 66% 0 mm meteobridge W/m2
15:54 22.1 °C 15.7 °C 1009 hPa Calm   3.2 km/h 67% 0 mm meteobridge W/m2
15:59 22.1 °C 15.2 °C 1009 hPa WNW 1.4 km/h 8 km/h 65% 0 mm meteobridge W/m2
16:04 22.1 °C 15.4 °C 1009 hPa WSW 1.4 km/h 1.6 km/h 66% 0 mm meteobridge W/m2
16:09 21.9 °C 14.5 °C 1009.4 hPa Calm   9.7 km/h 63% 0 mm meteobridge W/m2
16:14 21.9 °C 14.3 °C 1009.4 hPa Calm   3.2 km/h 62% 0 mm meteobridge W/m2
16:19 21.9 °C 14.5 °C 1009.4 hPa Calm   6.4 km/h 63% 0 mm meteobridge W/m2
16:24 21.9 °C 15 °C 1009.4 hPa NW 3.2 km/h 3.2 km/h 65% 0 mm meteobridge W/m2
16:29 21.9 °C 15.5 °C 1009.4 hPa West 7.9 km/h 12.9 km/h 67% 0 mm meteobridge W/m2
16:34 21.9 °C 15.5 °C 1009.4 hPa Calm   6.4 km/h 67% 0 mm meteobridge W/m2
16:39 21.8 °C 15.6 °C 1009.4 hPa ENE 7.9 km/h 8 km/h 68% 0 mm meteobridge W/m2
16:44 21.8 °C 16.1 °C 1009.4 hPa Calm   6.4 km/h 70% 0 mm meteobridge W/m2
16:49 21.7 °C 16 °C 1009.4 hPa NW 1.4 km/h 6.4 km/h 70% 0 mm meteobridge W/m2
16:54 21.6 °C 15.9 °C 1009.4 hPa Calm   3.2 km/h 70% 0 mm meteobridge W/m2
16:59 21.5 °C 16 °C 1009.4 hPa NNE 7.9 km/h 8 km/h 71% 0 mm meteobridge W/m2
17:04 21.3 °C 16 °C 1009.7 hPa Calm     72% 0 mm meteobridge W/m2
17:09 21.2 °C 15.9 °C 1009.7 hPa NW 1.4 km/h 3.2 km/h 72% 0 mm meteobridge W/m2
17:14 21.1 °C 15.6 °C 1009.7 hPa Calm   9.7 km/h 71% 0 mm meteobridge W/m2
17:19 21.1 °C 16.1 °C 1009.7 hPa Calm   4.8 km/h 73% 0 mm meteobridge W/m2
17:24 20.9 °C 15.4 °C 1009.7 hPa Calm   1.6 km/h 71% 0 mm meteobridge W/m2
17:29 20.7 °C 15.5 °C 1009.7 hPa Calm     72% 0 mm meteobridge W/m2
17:34 20.6 °C 15.6 °C 1010 hPa Calm     73% 0 mm meteobridge W/m2
17:39 20.4 °C 15.4 °C 1010 hPa Calm   1.6 km/h 73% 0 mm meteobridge W/m2
17:44 20.2 °C 15 °C 1010 hPa Calm     72% 0 mm meteobridge W/m2
17:49 20.1 °C 15.3 °C 1010 hPa Calm   1.6 km/h 74% 0 mm meteobridge W/m2
17:54 19.9 °C 15.1 °C 1010 hPa NE 1.4 km/h 8 km/h 74% 0 mm meteobridge W/m2
17:59 19.8 °C 15.2 °C 1010 hPa Calm   4.8 km/h 75% 0 mm meteobridge W/m2
18:04 19.7 °C 14.9 °C 1010 hPa Calm   6.4 km/h 74% 0 mm meteobridge W/m2
18:09 19.6 °C 14.8 °C 1010 hPa Calm   4.8 km/h 74% 0 mm meteobridge W/m2
18:14 19.4 °C 14.4 °C 1010 hPa Calm   4.8 km/h 73% 0 mm meteobridge W/m2
18:19 19.2 °C 13.8 °C 1010.4 hPa Calm   3.2 km/h 71% 0 mm meteobridge W/m2
18:24 19.1 °C 13.7 °C 1010.4 hPa West 11.1 km/h 11.3 km/h 71% 0 mm meteobridge W/m2
18:29 18.9 °C 13.3 °C 1010.4 hPa NW 1.4 km/h 8 km/h 70% 0 mm meteobridge W/m2
18:34 18.8 °C 13.2 °C 1010.4 hPa Calm     70% 0 mm meteobridge W/m2
18:39 18.7 °C 13.1 °C 1010.7 hPa Calm   3.2 km/h 70% 0 mm meteobridge W/m2
18:44 18.5 °C 12.9 °C 1010.7 hPa Calm   3.2 km/h 70% 0 mm meteobridge W/m2
18:49 18.3 °C 13.2 °C 1010.7 hPa Calm   1.6 km/h 72% 0 mm meteobridge W/m2
18:54 18.2 °C 13.1 °C 1010.7 hPa Calm   6.4 km/h 72% 0 mm meteobridge W/m2
18:59 17.9 °C 13.4 °C 1010.7 hPa Calm   6.4 km/h 75% 0 mm meteobridge W/m2
19:04 17.8 °C 13.3 °C 1010.7 hPa Calm     75% 0 mm meteobridge W/m2
19:09 17.6 °C 13.1 °C 1010.7 hPa Calm   6.4 km/h 75% 0 mm meteobridge W/m2
19:14 17.4 °C 13.3 °C 1011.1 hPa Calm   1.6 km/h 77% 0 mm meteobridge W/m2
19:19 17.2 °C 13.1 °C 1011.1 hPa Calm     77% 0 mm meteobridge W/m2
19:24 17 °C 12.9 °C 1011.1 hPa Calm     77% 0 mm meteobridge W/m2
19:29 16.8 °C 12.7 °C 1011.1 hPa Calm     77% 0 mm meteobridge W/m2
19:34 16.7 °C 12.6 °C 1011.1 hPa Calm     77% 0 mm meteobridge W/m2
19:39 16.4 °C 12.6 °C 1011.1 hPa Calm     78% 0 mm meteobridge W/m2
19:44 16.2 °C 12.4 °C 1011.4 hPa Calm     78% 0 mm meteobridge W/m2
19:49 16 °C 12.2 °C 1011.4 hPa Calm     78% 0 mm meteobridge W/m2
19:54 15.8 °C 12 °C 1011.4 hPa North 1.4 km/h 3.2 km/h 78% 0 mm meteobridge W/m2
19:59 15.7 °C 11.9 °C 1011.4 hPa Calm   4.8 km/h 78% 0 mm meteobridge W/m2
20:04 15.7 °C 11.7 °C 1011.7 hPa Calm   4.8 km/h 77% 0 mm meteobridge W/m2
20:09 15.8 °C 11.6 °C 1011.7 hPa Calm     76% 0 mm meteobridge W/m2
20:14 15.8 °C 11.8 °C 1011.7 hPa Calm   6.4 km/h 77% 0 mm meteobridge W/m2
20:19 15.8 °C 11.8 °C 1012.1 hPa Calm     77% 0 mm meteobridge W/m2
20:24 15.7 °C 11.7 °C 1012.1 hPa Calm     77% 0 mm meteobridge W/m2
20:29 15.4 °C 11.6 °C 1012.1 hPa Calm     78% 0 mm meteobridge W/m2
20:34 15.3 °C 11.5 °C 1012.4 hPa Calm     78% 0 mm meteobridge W/m2
20:39 15.1 °C 11.3 °C 1012.4 hPa Calm     78% 0 mm meteobridge W/m2
20:44 14.9 °C 11.1 °C 1012.4 hPa Calm   1.6 km/h 78% 0 mm meteobridge W/m2
20:49 14.8 °C 11 °C 1012.4 hPa Calm     78% 0 mm meteobridge W/m2
20:54 14.6 °C 10.8 °C 1012.4 hPa Calm     78% 0 mm meteobridge W/m2
20:59 14.4 °C 10.6 °C 1012.8 hPa Calm     78% 0 mm meteobridge W/m2
21:04 14.3 °C 10.5 °C 1012.8 hPa Calm     78% 0 mm meteobridge W/m2
21:09 14.2 °C 10.2 °C 1012.8 hPa Calm     77% 0 mm meteobridge W/m2
21:14 14 °C 10 °C 1012.8 hPa Calm     77% 0 mm meteobridge W/m2
21:19 13.9 °C 9.7 °C 1012.8 hPa Calm     76% 0 mm meteobridge W/m2
21:24 13.8 °C 9.4 °C 1012.8 hPa Calm     75% 0 mm meteobridge W/m2
21:29 13.8 °C 9.4 °C 1013.1 hPa Calm     75% 0 mm meteobridge W/m2
21:34 13.7 °C 9.3 °C 1013.1 hPa Calm     75% 0 mm meteobridge W/m2
21:39 13.6 °C 9.1 °C 1013.1 hPa Calm     74% 0 mm meteobridge W/m2
21:44 13.5 °C 8.8 °C 1013.1 hPa Calm     73% 0 mm meteobridge W/m2
21:49 13.4 °C 8.7 °C 1013.1 hPa Calm     73% 0 mm meteobridge W/m2
21:54 13.3 °C 8.6 °C 1013.1 hPa Calm     73% 0 mm meteobridge W/m2
21:59 13.3 °C 8.4 °C 1013.1 hPa Calm     72% 0 mm meteobridge W/m2
22:04 13.2 °C 8.3 °C 1013.1 hPa Calm   1.6 km/h 72% 0 mm meteobridge W/m2
22:09 13.1 °C 8.2 °C 1013.1 hPa Calm     72% 0 mm meteobridge W/m2
22:14 13.1 °C 8.2 °C 1013.4 hPa Calm     72% 0 mm meteobridge W/m2
22:19 13.1 °C 8.2 °C 1013.4 hPa Calm     72% 0 mm meteobridge W/m2
22:24 13 °C 8.1 °C 1013.4 hPa Calm     72% 0 mm meteobridge W/m2
22:29 12.9 °C 7.8 °C 1013.4 hPa Calm     71% 0 mm meteobridge W/m2
22:34 12.9 °C 7.8 °C 1013.4 hPa Calm     71% 0 mm meteobridge W/m2
22:39 12.9 °C 7.8 °C 1013.4 hPa Calm   1.6 km/h 71% 0 mm meteobridge W/m2
22:44 12.8 °C 7.7 °C 1013.4 hPa Calm     71% 0 mm meteobridge W/m2
22:49 12.8 °C 7.7 °C 1013.4 hPa Calm     71% 0 mm meteobridge W/m2
22:54 12.8 °C 7.7 °C 1013.4 hPa Calm     71% 0 mm meteobridge W/m2
22:59 12.8 °C 7.7 °C 1013.4 hPa Calm     71% 0 mm meteobridge W/m2
23:04 12.8 °C 7.7 °C 1013.4 hPa Calm     71% 0 mm meteobridge W/m2
23:09 12.7 °C 7.6 °C 1013.4 hPa Calm     71% 0 mm meteobridge W/m2
23:14 12.8 °C 7.9 °C 1013.4 hPa Calm   6.4 km/h 72% 0 mm meteobridge W/m2
23:19 12.8 °C 8.1 °C 1013.8 hPa Calm   1.6 km/h 73% 0 mm meteobridge W/m2
23:24 12.8 °C 8.1 °C 1013.8 hPa Calm     73% 0 mm meteobridge W/m2
23:29 12.9 °C 8.2 °C 1013.8 hPa Calm   1.6 km/h 73% 0 mm meteobridge W/m2
23:34 12.9 °C 8.4 °C 1013.8 hPa Calm     74% 0 mm meteobridge W/m2
23:39 12.9 °C 8.4 °C 1013.8 hPa Calm     74% 0 mm meteobridge W/m2
23:44 12.9 °C 8.4 °C 1013.8 hPa Calm     74% 0 mm meteobridge W/m2
23:49 12.9 °C 8.4 °C 1013.8 hPa Calm     74% 0 mm meteobridge W/m2
23:54 12.8 °C 8.3 °C 1013.8 hPa Calm     74% 0 mm meteobridge W/m2
23:59 12.8 °C 8.1 °C 1013.8 hPa Calm     73% 0 mm meteobridge W/m2
EllijayWeather
Compliments of Weather Underground - 2.5 mb